createdAt,value
2023-01-15T00:00:30.814Z,9.57
2023-01-15T00:01:30.907Z,9.48
2023-01-15T00:02:30.854Z,9.57
2023-01-15T00:03:30.816Z,9.50
2023-01-15T00:04:30.780Z,9.54
2023-01-15T00:05:30.772Z,9.51
2023-01-15T00:06:30.762Z,9.47
2023-01-15T00:07:30.764Z,9.51
2023-01-15T00:08:30.752Z,9.45
2023-01-15T00:09:30.742Z,9.33
2023-01-15T00:10:30.734Z,9.34
2023-01-15T00:11:30.742Z,9.33
2023-01-15T00:12:30.728Z,9.30
2023-01-15T00:13:30.715Z,9.26
2023-01-15T00:14:30.714Z,9.41
2023-01-15T00:15:30.691Z,9.33
2023-01-15T00:16:30.679Z,9.36
2023-01-15T00:17:30.677Z,9.26
2023-01-15T00:18:30.672Z,9.26
2023-01-15T00:19:30.662Z,9.11
2023-01-15T00:20:30.652Z,9.14
2023-01-15T00:21:30.646Z,9.06
2023-01-15T00:22:30.636Z,9.12
2023-01-15T00:23:30.622Z,9.11
2023-01-15T00:24:30.628Z,9.14
2023-01-15T00:25:30.617Z,9.11
2023-01-15T00:26:30.596Z,9.11
2023-01-15T00:27:30.593Z,9.04
2023-01-15T00:28:30.586Z,9.04
2023-01-15T00:29:30.588Z,9.15
2023-01-15T00:30:30.577Z,9.11
2023-01-15T00:31:30.596Z,9.09
2023-01-15T00:32:30.567Z,9.08
2023-01-15T00:33:30.548Z,9.12
2023-01-15T00:34:30.534Z,9.09
2023-01-15T00:35:30.546Z,9.03
2023-01-15T00:36:30.521Z,9.09
2023-01-15T00:37:30.516Z,9.01
2023-01-15T00:38:30.510Z,8.96
2023-01-15T00:39:30.497Z,8.95
2023-01-15T00:40:30.483Z,8.98
2023-01-15T00:41:30.476Z,9.03
2023-01-15T00:42:30.469Z,8.81
2023-01-15T00:43:30.476Z,8.81
2023-01-15T00:44:30.448Z,8.88
2023-01-15T00:45:30.433Z,8.78
2023-01-15T00:46:30.433Z,8.78
2023-01-15T00:47:30.424Z,8.86
2023-01-15T00:48:30.415Z,8.77
2023-01-15T00:49:30.403Z,8.78
2023-01-15T00:50:30.397Z,8.77
2023-01-15T00:51:30.394Z,8.80
2023-01-15T00:52:30.377Z,8.72
2023-01-15T00:53:30.387Z,8.62
2023-01-15T00:54:30.364Z,8.68
2023-01-15T00:55:30.356Z,8.56
2023-01-15T00:56:30.341Z,8.53
2023-01-15T00:57:30.336Z,8.55
2023-01-15T00:58:30.331Z,8.53
2023-01-15T00:59:30.326Z,8.55
2023-01-15T01:00:30.369Z,8.56
2023-01-15T01:01:30.432Z,8.53
2023-01-15T01:02:30.331Z,8.57
2023-01-15T01:03:30.299Z,8.49
2023-01-15T01:04:30.281Z,8.50
2023-01-15T01:05:30.277Z,8.52
2023-01-15T01:06:30.260Z,8.52
2023-01-15T01:07:30.254Z,8.56
2023-01-15T01:08:30.243Z,8.47
2023-01-15T01:09:30.238Z,8.41
2023-01-15T01:10:30.229Z,8.42
2023-01-15T01:11:30.220Z,8.42
2023-01-15T01:12:30.213Z,8.39
2023-01-15T01:13:30.197Z,8.38
2023-01-15T01:14:30.192Z,8.41
2023-01-15T01:15:30.184Z,8.52
2023-01-15T01:16:30.237Z,8.37
2023-01-15T01:17:30.164Z,8.31
2023-01-15T01:18:30.162Z,8.37
2023-01-15T01:19:30.146Z,8.31
2023-01-15T01:20:30.138Z,8.31
2023-01-15T01:21:30.130Z,8.37
2023-01-15T01:22:30.141Z,8.35
2023-01-15T01:23:30.106Z,8.38
2023-01-15T01:24:30.100Z,8.38
2023-01-15T01:25:30.094Z,8.37
2023-01-15T01:26:30.092Z,8.26
2023-01-15T01:27:30.078Z,8.29
2023-01-15T01:28:30.069Z,8.24
2023-01-15T01:29:30.075Z,8.23
2023-01-15T01:30:30.050Z,8.24
2023-01-15T01:31:30.157Z,8.24
2023-01-15T01:32:30.038Z,8.26
2023-01-15T01:33:30.055Z,8.28
2023-01-15T01:34:30.017Z,8.31
2023-01-15T01:35:30.009Z,8.34
2023-01-15T01:36:30.001Z,8.32
2023-01-15T01:37:29.991Z,8.28
2023-01-15T01:38:29.981Z,8.31
2023-01-15T01:39:29.979Z,8.34
2023-01-15T01:40:29.964Z,8.32
2023-01-15T01:41:29.971Z,8.39
2023-01-15T01:42:29.948Z,8.26
2023-01-15T01:43:29.949Z,8.32
2023-01-15T01:44:29.923Z,8.32
2023-01-15T01:45:29.965Z,8.42
2023-01-15T01:46:29.908Z,8.37
2023-01-15T01:47:29.902Z,8.37
2023-01-15T01:48:29.904Z,8.44
2023-01-15T01:49:29.889Z,8.34
2023-01-15T01:50:29.875Z,8.32
2023-01-15T01:51:29.869Z,8.28
2023-01-15T01:52:29.859Z,8.28
2023-01-15T01:53:29.844Z,8.26
2023-01-15T01:54:29.841Z,8.34
2023-01-15T01:55:29.842Z,8.28
2023-01-15T01:56:29.825Z,8.28
2023-01-15T01:57:29.814Z,8.20
2023-01-15T01:58:29.802Z,8.32
2023-01-15T01:59:29.799Z,8.28
2023-01-15T02:00:29.984Z,8.29
2023-01-15T02:01:29.823Z,8.23
2023-01-15T02:02:29.853Z,8.26
2023-01-15T02:03:29.756Z,8.23
2023-01-15T02:04:29.752Z,8.24
2023-01-15T02:05:29.736Z,8.24
2023-01-15T02:06:29.727Z,8.26
2023-01-15T02:07:29.725Z,8.20
2023-01-15T02:08:29.714Z,8.26
2023-01-15T02:09:29.706Z,8.21
2023-01-15T02:10:29.690Z,8.21
2023-01-15T02:11:29.682Z,8.16
2023-01-15T02:12:29.677Z,8.20
2023-01-15T02:13:29.677Z,8.23
2023-01-15T02:14:29.663Z,8.19
2023-01-15T02:15:29.689Z,8.20
2023-01-15T02:16:29.698Z,8.20
2023-01-15T02:17:29.640Z,8.23
2023-01-15T02:18:29.646Z,8.23
2023-01-15T02:19:29.616Z,8.21
2023-01-15T02:20:29.614Z,8.17
2023-01-15T02:21:29.608Z,8.19
2023-01-15T02:22:29.590Z,8.26
2023-01-15T02:23:29.582Z,8.26
2023-01-15T02:24:29.569Z,8.20
2023-01-15T02:25:29.572Z,8.23
2023-01-15T02:26:29.568Z,8.10
2023-01-15T02:27:29.547Z,8.24
2023-01-15T02:28:29.538Z,8.14
2023-01-15T02:29:29.529Z,8.01
2023-01-15T02:30:29.522Z,8.16
2023-01-15T02:31:29.543Z,8.14
2023-01-15T02:32:29.508Z,8.01
2023-01-15T02:33:29.497Z,8.14
2023-01-15T02:34:29.491Z,8.14
2023-01-15T02:35:29.487Z,8.14
2023-01-15T02:36:29.465Z,8.10
2023-01-15T02:37:29.456Z,8.14
2023-01-15T02:38:29.446Z,8.02
2023-01-15T02:39:29.440Z,8.13
2023-01-15T02:40:29.429Z,8.14
2023-01-15T02:41:29.422Z,8.13
2023-01-15T02:42:29.418Z,8.04
2023-01-15T02:43:29.417Z,8.10
2023-01-15T02:44:29.392Z,8.13
2023-01-15T02:45:29.429Z,8.13
2023-01-15T02:46:29.383Z,8.05
2023-01-15T02:47:29.381Z,8.10
2023-01-15T02:48:29.373Z,8.12
2023-01-15T02:49:29.360Z,8.14
2023-01-15T02:50:29.344Z,8.14
2023-01-15T02:51:29.334Z,8.01
2023-01-15T02:52:29.329Z,8.12
2023-01-15T02:53:29.315Z,8.13
2023-01-15T02:54:29.307Z,8.17
2023-01-15T02:55:29.300Z,8.12
2023-01-15T02:56:29.291Z,8.21
2023-01-15T02:57:29.283Z,8.23
2023-01-15T02:58:29.273Z,8.16
2023-01-15T02:59:29.267Z,8.23
2023-01-15T03:00:29.253Z,8.29
2023-01-15T03:01:29.349Z,8.21
2023-01-15T03:02:29.264Z,8.24
2023-01-15T03:03:29.235Z,8.14
2023-01-15T03:04:29.216Z,8.14
2023-01-15T03:05:29.223Z,8.16
2023-01-15T03:06:29.198Z,8.21
2023-01-15T03:07:29.194Z,8.24
2023-01-15T03:08:29.192Z,8.23
2023-01-15T03:09:29.178Z,8.16
2023-01-15T03:10:29.162Z,8.12
2023-01-15T03:11:29.163Z,8.13
2023-01-15T03:12:29.149Z,8.13
2023-01-15T03:13:29.163Z,8.10
2023-01-15T03:14:29.130Z,8.14
2023-01-15T03:15:29.122Z,8.09
2023-01-15T03:16:29.132Z,8.10
2023-01-15T03:17:29.104Z,8.01
2023-01-15T03:18:29.099Z,8.05
2023-01-15T03:19:29.092Z,8.10
2023-01-15T03:20:29.076Z,8.01
2023-01-15T03:21:29.072Z,8.01
2023-01-15T03:22:29.063Z,8.20
2023-01-15T03:23:29.063Z,8.21
2023-01-15T03:24:29.047Z,8.16
2023-01-15T03:25:29.042Z,8.12
2023-01-15T03:26:29.039Z,8.21
2023-01-15T03:27:29.017Z,8.19
2023-01-15T03:28:29.009Z,8.21
2023-01-15T03:29:29.009Z,8.26
2023-01-15T03:30:29.070Z,8.20
2023-01-15T03:31:28.985Z,8.21
2023-01-15T03:32:28.978Z,8.24
2023-01-15T03:33:28.970Z,8.29
2023-01-15T03:34:28.958Z,8.23
2023-01-15T03:35:28.958Z,8.20
2023-01-15T03:36:28.949Z,8.14
2023-01-15T03:37:28.950Z,8.23
2023-01-15T03:38:28.940Z,8.19
2023-01-15T03:39:28.922Z,8.16
2023-01-15T03:40:28.906Z,8.20
2023-01-15T03:41:28.908Z,8.24
2023-01-15T03:42:28.890Z,8.21
2023-01-15T03:43:28.886Z,8.21
2023-01-15T03:44:28.874Z,8.21
2023-01-15T03:45:28.863Z,8.14
2023-01-15T03:46:28.857Z,8.19
2023-01-15T03:47:28.848Z,8.19
2023-01-15T03:48:28.841Z,8.09
2023-01-15T03:49:28.838Z,8.16
2023-01-15T03:50:28.824Z,8.13
2023-01-15T03:51:28.813Z,8.19
2023-01-15T03:52:28.799Z,8.21
2023-01-15T03:53:28.801Z,8.24
2023-01-15T03:54:28.785Z,8.24
2023-01-15T03:55:28.777Z,8.19
2023-01-15T03:56:28.775Z,8.20
2023-01-15T03:57:28.767Z,8.17
2023-01-15T03:58:28.754Z,8.19
2023-01-15T03:59:28.740Z,8.24
2023-01-15T04:00:28.741Z,8.17
2023-01-15T04:01:28.804Z,8.13
2023-01-15T04:02:28.722Z,8.12
2023-01-15T04:03:28.713Z,8.16
2023-01-15T04:04:28.724Z,8.12
2023-01-15T04:05:28.691Z,8.16
2023-01-15T04:06:28.681Z,8.19
2023-01-15T04:07:28.681Z,8.19
2023-01-15T04:08:28.666Z,8.23
2023-01-15T04:09:28.652Z,8.19
2023-01-15T04:10:28.647Z,8.28
2023-01-15T04:11:28.638Z,8.16
2023-01-15T04:12:28.637Z,8.19
2023-01-15T04:13:31.052Z,8.20
2023-01-15T04:14:28.610Z,8.12
2023-01-15T04:15:28.625Z,8.23
2023-01-15T04:16:28.605Z,8.28
2023-01-15T04:17:28.603Z,8.17
2023-01-15T04:18:28.582Z,8.09
2023-01-15T04:19:28.574Z,8.12
2023-01-15T04:20:28.558Z,8.20
2023-01-15T04:21:28.568Z,8.23
2023-01-15T04:22:28.536Z,8.21
2023-01-15T04:23:28.529Z,8.26
2023-01-15T04:24:28.530Z,8.17
2023-01-15T04:25:28.509Z,8.16
2023-01-15T04:26:28.505Z,8.17
2023-01-15T04:27:28.501Z,8.19
2023-01-15T04:28:28.492Z,8.13
2023-01-15T04:29:28.484Z,8.04
2023-01-15T04:30:28.479Z,8.01
2023-01-15T04:31:28.461Z,8.12
2023-01-15T04:32:28.461Z,8.19
2023-01-15T04:33:28.456Z,8.13
2023-01-15T04:34:28.443Z,8.12
2023-01-15T04:35:28.423Z,8.12
2023-01-15T04:36:28.420Z,8.12
2023-01-15T04:37:28.409Z,8.09
2023-01-15T04:38:28.402Z,8.02
2023-01-15T04:39:28.392Z,8.12
2023-01-15T04:40:28.389Z,8.06
2023-01-15T04:41:28.407Z,8.09
2023-01-15T04:42:28.366Z,8.02
2023-01-15T04:43:28.353Z,7.96
2023-01-15T04:44:28.347Z,7.91
2023-01-15T04:45:28.339Z,8.01
2023-01-15T04:46:28.401Z,8.05
2023-01-15T04:47:28.313Z,8.01
2023-01-15T04:48:28.319Z,8.06
2023-01-15T04:49:28.301Z,8.05
2023-01-15T04:50:28.292Z,8.05
2023-01-15T04:51:28.288Z,8.02
2023-01-15T04:52:28.289Z,8.01
2023-01-15T04:53:28.269Z,7.94
2023-01-15T04:54:28.261Z,8.02
2023-01-15T04:55:28.250Z,8.05
2023-01-15T04:56:28.248Z,8.02
2023-01-15T04:57:28.237Z,8.05
2023-01-15T04:58:28.234Z,8.04
2023-01-15T04:59:28.227Z,7.94
2023-01-15T05:00:28.210Z,8.01
2023-01-15T05:01:28.314Z,7.92
2023-01-15T05:02:28.342Z,8.02
2023-01-15T05:03:28.178Z,8.04
2023-01-15T05:04:28.225Z,7.99
2023-01-15T05:05:28.159Z,7.98
2023-01-15T05:06:28.153Z,7.95
2023-01-15T05:07:28.154Z,7.99
2023-01-15T05:08:28.136Z,8.04
2023-01-15T05:09:28.132Z,7.95
2023-01-15T05:10:28.135Z,7.98
2023-01-15T05:11:28.117Z,8.05
2023-01-15T05:12:28.096Z,8.02
2023-01-15T05:13:28.112Z,8.02
2023-01-15T05:14:28.118Z,8.09
2023-01-15T05:15:28.073Z,8.05
2023-01-15T05:16:28.091Z,8.01
2023-01-15T05:17:28.053Z,8.06
2023-01-15T05:18:28.079Z,8.02
2023-01-15T05:19:28.069Z,8.04
2023-01-15T05:20:28.025Z,8.04
2023-01-15T05:21:28.022Z,8.06
2023-01-15T05:22:28.007Z,8.06
2023-01-15T05:23:28.005Z,8.06
2023-01-15T05:24:27.996Z,8.06
2023-01-15T05:25:27.990Z,8.04
2023-01-15T05:26:27.973Z,8.05
2023-01-15T05:27:27.969Z,8.04
2023-01-15T05:28:27.956Z,8.01
2023-01-15T05:29:27.945Z,7.99
2023-01-15T05:30:27.940Z,7.94
2023-01-15T05:31:27.974Z,8.09
2023-01-15T05:32:27.931Z,7.94
2023-01-15T05:33:27.910Z,7.92
2023-01-15T05:34:27.902Z,8.02
2023-01-15T05:35:27.886Z,7.91
2023-01-15T05:36:27.883Z,8.01
2023-01-15T05:37:27.873Z,7.92
2023-01-15T05:38:27.859Z,7.99
2023-01-15T05:39:27.853Z,8.01
2023-01-15T05:40:27.844Z,7.95
2023-01-15T05:41:27.855Z,7.91
2023-01-15T05:42:27.818Z,7.95
2023-01-15T05:43:27.821Z,7.83
2023-01-15T05:44:27.840Z,7.87
2023-01-15T05:45:27.799Z,7.88
2023-01-15T05:46:27.836Z,7.86
2023-01-15T05:47:27.778Z,7.86
2023-01-15T05:48:27.765Z,7.92
2023-01-15T05:49:27.774Z,7.83
2023-01-15T05:50:29.023Z,7.80
2023-01-15T05:51:27.741Z,7.86
2023-01-15T05:52:27.737Z,7.81
2023-01-15T05:53:27.733Z,7.81
2023-01-15T05:54:27.717Z,7.86
2023-01-15T05:55:27.703Z,7.77
2023-01-15T05:56:27.690Z,7.86
2023-01-15T05:57:27.683Z,7.88
2023-01-15T05:58:27.676Z,7.86
2023-01-15T05:59:27.683Z,7.77
2023-01-15T06:00:29.765Z,7.80
2023-01-15T06:01:27.667Z,7.87
2023-01-15T06:02:27.692Z,7.83
2023-01-15T06:03:27.678Z,7.87
2023-01-15T06:04:27.631Z,7.86
2023-01-15T06:05:27.615Z,7.86
2023-01-15T06:06:27.610Z,7.88
2023-01-15T06:07:27.598Z,7.83
2023-01-15T06:08:27.581Z,7.77
2023-01-15T06:09:27.583Z,7.78
2023-01-15T06:10:27.558Z,7.77
2023-01-15T06:11:27.572Z,7.83
2023-01-15T06:12:27.543Z,7.76
2023-01-15T06:13:27.550Z,7.74
2023-01-15T06:14:27.553Z,7.78
2023-01-15T06:15:27.522Z,7.92
2023-01-15T06:16:27.513Z,7.81
2023-01-15T06:17:27.497Z,7.81
2023-01-15T06:18:27.492Z,7.77
2023-01-15T06:19:27.481Z,7.69
2023-01-15T06:20:27.471Z,7.78
2023-01-15T06:21:27.467Z,7.69
2023-01-15T06:22:27.454Z,7.61
2023-01-15T06:23:27.440Z,7.71
2023-01-15T06:24:27.435Z,7.73
2023-01-15T06:25:27.427Z,7.76
2023-01-15T06:26:27.421Z,7.64
2023-01-15T06:27:27.408Z,7.68
2023-01-15T06:28:27.400Z,7.61
2023-01-15T06:29:27.387Z,7.69
2023-01-15T06:30:27.380Z,7.66
2023-01-15T06:31:27.493Z,7.57
2023-01-15T06:32:27.363Z,7.52
2023-01-15T06:33:27.355Z,7.54
2023-01-15T06:34:27.347Z,7.44
2023-01-15T06:35:27.330Z,7.39
2023-01-15T06:36:27.329Z,7.39
2023-01-15T06:37:27.315Z,7.40
2023-01-15T06:38:27.294Z,7.40
2023-01-15T06:39:27.292Z,7.36
2023-01-15T06:40:27.292Z,7.33
2023-01-15T06:41:27.270Z,7.28
2023-01-15T06:42:27.264Z,7.28
2023-01-15T06:43:27.255Z,7.19
2023-01-15T06:44:28.339Z,7.08
2023-01-15T06:45:27.236Z,7.22
2023-01-15T06:46:27.266Z,7.13
2023-01-15T06:47:27.215Z,7.00
2023-01-15T06:48:27.212Z,7.11
2023-01-15T06:49:27.210Z,7.04
2023-01-15T06:50:27.192Z,6.97
2023-01-15T06:51:27.373Z,6.89
2023-01-15T06:52:27.164Z,6.96
2023-01-15T06:53:27.156Z,6.86
2023-01-15T06:54:27.160Z,6.85
2023-01-15T06:55:27.141Z,6.92
2023-01-15T06:56:27.137Z,6.93
2023-01-15T06:57:27.120Z,6.85
2023-01-15T06:58:27.113Z,6.88
2023-01-15T06:59:27.098Z,6.85
2023-01-15T07:00:27.126Z,6.70
2023-01-15T07:01:27.132Z,6.86
2023-01-15T07:02:27.094Z,6.81
2023-01-15T07:03:27.067Z,6.81
2023-01-15T07:04:27.052Z,6.78
2023-01-15T07:05:27.048Z,6.79
2023-01-15T07:06:27.032Z,6.78
2023-01-15T07:07:27.023Z,6.81
2023-01-15T07:08:27.014Z,6.78
2023-01-15T07:09:27.008Z,6.78
2023-01-15T07:10:26.991Z,6.83
2023-01-15T07:11:26.986Z,6.81
2023-01-15T07:12:26.977Z,6.79
2023-01-15T07:13:26.973Z,6.92
2023-01-15T07:14:26.965Z,6.86
2023-01-15T07:15:26.947Z,6.78
2023-01-15T07:16:27.124Z,6.83
2023-01-15T07:17:26.926Z,6.82
2023-01-15T07:18:26.919Z,6.83
2023-01-15T07:19:26.907Z,6.88
2023-01-15T07:20:26.906Z,6.93
2023-01-15T07:21:26.888Z,6.89
2023-01-15T07:22:26.880Z,6.88
2023-01-15T07:23:26.879Z,6.93
2023-01-15T07:24:26.858Z,6.89
2023-01-15T07:25:26.849Z,6.86
2023-01-15T07:26:26.849Z,6.93
2023-01-15T07:27:26.830Z,6.89
2023-01-15T07:28:26.821Z,6.89
2023-01-15T07:29:26.822Z,6.93
2023-01-15T07:30:26.800Z,6.96
2023-01-15T07:31:26.877Z,6.92
2023-01-15T07:32:26.789Z,6.96
2023-01-15T07:33:26.766Z,6.92
2023-01-15T07:34:26.788Z,6.96
2023-01-15T07:35:26.755Z,7.00
2023-01-15T07:36:26.740Z,6.89
2023-01-15T07:37:28.562Z,7.00
2023-01-15T07:38:26.725Z,6.96
2023-01-15T07:39:26.740Z,7.01
2023-01-15T07:40:26.706Z,7.04
2023-01-15T07:41:26.694Z,7.01
2023-01-15T07:42:26.680Z,7.04
2023-01-15T07:43:26.689Z,7.00
2023-01-15T07:44:26.672Z,7.01
2023-01-15T07:45:26.766Z,7.06
2023-01-15T07:46:26.647Z,6.99
2023-01-15T07:47:26.637Z,7.08
2023-01-15T07:48:26.632Z,7.10
2023-01-15T07:49:26.620Z,7.08
2023-01-15T07:50:26.619Z,7.11
2023-01-15T07:51:26.597Z,7.10
2023-01-15T07:52:26.587Z,7.06
2023-01-15T07:53:26.587Z,7.11
2023-01-15T07:54:26.569Z,7.11
2023-01-15T07:55:26.567Z,7.03
2023-01-15T07:56:26.552Z,7.04
2023-01-15T07:57:26.541Z,7.04
2023-01-15T07:58:26.535Z,7.04
2023-01-15T07:59:26.522Z,7.04
2023-01-15T08:00:26.511Z,7.03
2023-01-15T08:01:26.632Z,7.04
2023-01-15T08:02:26.484Z,7.03
2023-01-15T08:03:26.483Z,7.06
2023-01-15T08:04:26.472Z,7.06
2023-01-15T08:05:26.472Z,7.01
2023-01-15T08:06:26.472Z,7.03
2023-01-15T08:07:26.460Z,7.03
2023-01-15T08:08:26.442Z,7.01
2023-01-15T08:09:26.433Z,7.04
2023-01-15T08:10:26.458Z,7.04
2023-01-15T08:11:26.403Z,7.04
2023-01-15T08:12:26.391Z,7.04
2023-01-15T08:13:26.383Z,7.07
2023-01-15T08:14:26.373Z,7.11
2023-01-15T08:15:26.392Z,7.08
2023-01-15T08:16:26.374Z,7.11
2023-01-15T08:17:26.348Z,7.06
2023-01-15T08:18:26.345Z,7.10
2023-01-15T08:19:26.342Z,7.08
2023-01-15T08:20:26.335Z,7.01
2023-01-15T08:21:26.313Z,7.03
2023-01-15T08:22:26.299Z,7.04
2023-01-15T08:23:26.289Z,7.00
2023-01-15T08:24:26.284Z,7.01
2023-01-15T08:25:26.293Z,6.99
2023-01-15T08:26:26.259Z,6.99
2023-01-15T08:27:26.264Z,7.01
2023-01-15T08:28:26.240Z,6.99
2023-01-15T08:29:26.230Z,7.04
2023-01-15T08:30:26.287Z,7.04
2023-01-15T08:31:26.294Z,7.04
2023-01-15T08:32:26.201Z,7.07
2023-01-15T08:33:26.194Z,7.08
2023-01-15T08:34:26.183Z,7.07
2023-01-15T08:35:26.178Z,7.08
2023-01-15T08:36:26.163Z,7.13
2023-01-15T08:37:26.163Z,7.10
2023-01-15T08:38:26.142Z,7.04
2023-01-15T08:39:26.133Z,7.11
2023-01-15T08:40:26.172Z,7.08
2023-01-15T08:41:26.118Z,7.04
2023-01-15T08:42:26.107Z,7.07
2023-01-15T08:43:26.108Z,7.07
2023-01-15T08:44:26.097Z,7.15
2023-01-15T08:45:26.075Z,7.08
2023-01-15T08:46:26.067Z,7.15
2023-01-15T08:47:26.065Z,7.07
2023-01-15T08:48:26.057Z,7.22
2023-01-15T08:49:26.039Z,7.19
2023-01-15T08:50:26.039Z,7.25
2023-01-15T08:51:26.021Z,7.22
2023-01-15T08:52:26.010Z,7.22
2023-01-15T08:53:26.012Z,7.24
2023-01-15T08:54:26.013Z,7.22
2023-01-15T08:55:25.982Z,7.18
2023-01-15T08:56:25.993Z,7.22
2023-01-15T08:57:25.966Z,7.29
2023-01-15T08:58:25.954Z,7.29
2023-01-15T08:59:25.946Z,7.26
2023-01-15T09:00:25.955Z,7.19
2023-01-15T09:01:26.040Z,7.28
2023-01-15T09:02:25.918Z,7.29
2023-01-15T09:03:25.914Z,7.42
2023-01-15T09:04:25.925Z,7.28
2023-01-15T09:05:25.890Z,7.28
2023-01-15T09:06:25.885Z,7.37
2023-01-15T09:07:25.966Z,7.46
2023-01-15T09:08:25.867Z,7.39
2023-01-15T09:09:25.851Z,7.33
2023-01-15T09:10:25.847Z,7.39
2023-01-15T09:11:25.840Z,7.42
2023-01-15T09:12:25.833Z,7.39
2023-01-15T09:13:25.820Z,7.36
2023-01-15T09:14:56.103Z,7.43
2023-01-15T09:15:25.801Z,7.31
2023-01-15T09:16:25.785Z,7.36
2023-01-15T09:17:25.779Z,7.34
2023-01-15T09:18:25.780Z,7.31
2023-01-15T09:19:25.767Z,7.31
2023-01-15T09:20:25.752Z,7.36
2023-01-15T09:21:25.740Z,7.39
2023-01-15T09:22:25.731Z,7.37
2023-01-15T09:23:25.730Z,7.43
2023-01-15T09:24:25.722Z,7.40
2023-01-15T09:25:25.705Z,7.44
2023-01-15T09:26:25.703Z,7.52
2023-01-15T09:27:25.687Z,7.52
2023-01-15T09:28:25.679Z,7.47
2023-01-15T09:29:25.669Z,7.47
2023-01-15T09:30:25.660Z,7.42
2023-01-15T09:31:27.677Z,7.52
2023-01-15T09:32:25.648Z,7.46
2023-01-15T09:33:25.631Z,7.47
2023-01-15T09:34:25.620Z,7.43
2023-01-15T09:35:25.631Z,7.50
2023-01-15T09:36:25.601Z,7.55
2023-01-15T09:37:25.590Z,7.60
2023-01-15T09:38:25.588Z,7.57
2023-01-15T09:39:25.580Z,7.55
2023-01-15T09:40:25.568Z,7.55
2023-01-15T09:41:25.552Z,7.52
2023-01-15T09:42:25.551Z,7.57
2023-01-15T09:43:25.543Z,7.54
2023-01-15T09:44:25.531Z,7.61
2023-01-15T09:45:25.528Z,7.62
2023-01-15T09:46:25.569Z,7.57
2023-01-15T09:47:25.503Z,7.64
2023-01-15T09:48:25.490Z,7.66
2023-01-15T09:49:25.489Z,7.74
2023-01-15T09:50:25.476Z,7.64
2023-01-15T09:51:25.470Z,7.69
2023-01-15T09:52:25.459Z,7.64
2023-01-15T09:53:25.457Z,7.71
2023-01-15T09:54:25.443Z,7.69
2023-01-15T09:55:25.423Z,7.69
2023-01-15T09:56:25.432Z,7.81
2023-01-15T09:57:25.418Z,7.78
2023-01-15T09:58:25.408Z,7.76
2023-01-15T09:59:25.392Z,7.83
2023-01-15T10:00:25.378Z,7.86
2023-01-15T10:01:25.481Z,7.87
2023-01-15T10:02:25.374Z,8.06
2023-01-15T10:03:25.437Z,8.04
2023-01-15T10:04:25.401Z,8.06
2023-01-15T10:05:25.337Z,8.09
2023-01-15T10:06:25.339Z,8.04
2023-01-15T10:07:25.324Z,8.14
2023-01-15T10:08:25.311Z,8.23
2023-01-15T10:09:25.304Z,8.17
2023-01-15T10:10:25.295Z,8.17
2023-01-15T10:11:25.287Z,8.17
2023-01-15T10:12:25.279Z,8.16
2023-01-15T10:13:25.272Z,8.12
2023-01-15T10:14:25.260Z,8.09
2023-01-15T10:15:25.270Z,8.19
2023-01-15T10:16:25.238Z,8.09
2023-01-15T10:17:25.240Z,8.12
2023-01-15T10:18:25.242Z,8.12
2023-01-15T10:19:31.911Z,8.09
2023-01-15T10:20:25.205Z,8.01
2023-01-15T10:21:25.209Z,8.04
2023-01-15T10:22:25.186Z,8.17
2023-01-15T10:23:25.177Z,8.20
2023-01-15T10:24:25.174Z,8.17
2023-01-15T10:25:25.182Z,8.21
2023-01-15T10:26:25.154Z,8.14
2023-01-15T10:27:25.156Z,8.20
2023-01-15T10:28:25.144Z,8.23
2023-01-15T10:29:25.136Z,8.31
2023-01-15T10:30:25.119Z,8.26
2023-01-15T10:31:25.153Z,8.19
2023-01-15T10:32:25.098Z,8.21
2023-01-15T10:33:25.098Z,8.29
2023-01-15T10:34:25.090Z,8.34
2023-01-15T10:35:25.087Z,8.35
2023-01-15T10:36:25.068Z,8.39
2023-01-15T10:37:25.062Z,8.46
2023-01-15T10:38:25.054Z,8.52
2023-01-15T10:39:25.045Z,8.81
2023-01-15T10:40:25.035Z,9.08
2023-01-15T10:41:25.023Z,9.22
2023-01-15T10:42:25.025Z,9.52
2023-01-15T10:43:25.017Z,9.81
2023-01-15T10:44:25.003Z,10.21
2023-01-15T10:45:24.993Z,10.38
2023-01-15T10:46:25.041Z,10.48
2023-01-15T10:47:24.985Z,10.67
2023-01-15T10:48:24.976Z,10.39
2023-01-15T10:49:24.971Z,10.60
2023-01-15T10:50:24.967Z,10.64
2023-01-15T10:51:24.960Z,10.67
2023-01-15T10:52:24.951Z,10.76
2023-01-15T10:53:24.949Z,10.67
2023-01-15T10:54:24.949Z,10.90
2023-01-15T10:55:24.959Z,11.11
2023-01-15T10:56:24.931Z,11.04
2023-01-15T10:57:24.924Z,11.20
2023-01-15T10:58:24.921Z,11.11
2023-01-15T10:59:24.911Z,11.23
2023-01-15T11:00:24.909Z,11.31
2023-01-15T11:01:24.985Z,11.67
2023-01-15T11:02:25.056Z,11.59
2023-01-15T11:03:24.900Z,11.59
2023-01-15T11:04:24.887Z,11.62
2023-01-15T11:05:24.884Z,11.76
2023-01-15T11:06:24.881Z,11.67
2023-01-15T11:07:24.883Z,11.96
2023-01-15T11:09:24.864Z,12.36
2023-01-15T11:10:24.871Z,12.32
2023-01-15T11:11:24.860Z,12.10
2023-01-15T11:12:24.867Z,12.11
2023-01-15T11:13:24.847Z,12.08
2023-01-15T11:14:24.852Z,12.46
2023-01-15T11:15:24.844Z,12.62
2023-01-15T11:16:24.842Z,12.58
2023-01-15T11:17:24.836Z,12.65
2023-01-15T11:18:24.846Z,12.58
2023-01-15T11:19:24.827Z,12.58
2023-01-15T11:20:24.832Z,12.61
2023-01-15T11:21:24.830Z,12.68
2023-01-15T11:22:24.815Z,12.55
2023-01-15T11:23:24.812Z,12.76
2023-01-15T11:24:24.810Z,12.87
2023-01-15T11:25:24.807Z,12.95
2023-01-15T11:26:24.807Z,13.04
2023-01-15T11:27:24.795Z,12.98
2023-01-15T11:28:24.791Z,12.65
2023-01-15T11:29:24.787Z,12.55
2023-01-15T11:30:24.787Z,12.66
2023-01-15T11:31:24.806Z,12.29
2023-01-15T11:32:24.799Z,12.54
2023-01-15T11:33:24.797Z,12.87
2023-01-15T11:34:24.783Z,12.81
2023-01-15T11:35:24.780Z,12.93
2023-01-15T11:36:24.765Z,12.71
2023-01-15T11:37:24.766Z,12.96
2023-01-15T11:38:24.772Z,13.24
2023-01-15T11:39:24.762Z,13.09
2023-01-15T11:40:24.755Z,13.04
2023-01-15T11:41:24.755Z,12.79
2023-01-15T11:42:24.764Z,12.84
2023-01-15T11:43:24.744Z,12.91
2023-01-15T11:44:24.737Z,12.93
2023-01-15T11:45:24.732Z,12.46
2023-01-15T11:46:24.777Z,12.53
2023-01-15T11:47:24.727Z,12.90
2023-01-15T11:48:24.735Z,12.77
2023-01-15T11:49:24.722Z,12.96
2023-01-15T11:50:24.720Z,12.96
2023-01-15T11:51:24.712Z,12.98
2023-01-15T11:52:24.721Z,12.68
2023-01-15T11:53:24.717Z,12.03
2023-01-15T11:54:24.706Z,11.69
2023-01-15T11:55:24.711Z,11.23
2023-01-15T11:56:24.700Z,11.13
2023-01-15T11:57:24.689Z,11.13
2023-01-15T11:58:24.684Z,11.11
2023-01-15T11:59:24.681Z,11.49
2023-01-15T12:00:24.682Z,11.15
2023-01-15T12:01:24.707Z,11.55
2023-01-15T12:02:24.661Z,11.45
2023-01-15T12:03:24.753Z,11.66
2023-01-15T12:04:24.759Z,11.51
2023-01-15T12:05:24.657Z,11.96
2023-01-15T12:06:24.651Z,12.47
2023-01-15T12:07:24.681Z,12.47
2023-01-15T12:08:24.642Z,12.84
2023-01-15T12:09:24.666Z,13.39
2023-01-15T12:10:24.636Z,13.51
2023-01-15T12:11:27.073Z,13.08
2023-01-15T12:12:24.625Z,12.46
2023-01-15T12:13:24.622Z,12.41
2023-01-15T12:14:24.626Z,12.66
2023-01-15T12:15:24.609Z,12.68
2023-01-15T12:16:24.710Z,12.46
2023-01-15T12:17:24.598Z,12.28
2023-01-15T12:18:24.617Z,12.05
2023-01-15T12:19:24.591Z,11.66
2023-01-15T12:20:24.595Z,11.61
2023-01-15T12:21:24.583Z,11.61
2023-01-15T12:22:24.581Z,11.76
2023-01-15T12:23:24.571Z,11.96
2023-01-15T12:24:24.572Z,11.96
2023-01-15T12:25:24.582Z,11.73
2023-01-15T12:26:24.565Z,11.95
2023-01-15T12:27:24.556Z,11.84
2023-01-15T12:28:24.573Z,11.97
2023-01-15T12:29:24.553Z,12.29
2023-01-15T12:30:24.557Z,12.46
2023-01-15T12:31:24.542Z,12.05
2023-01-15T12:32:24.535Z,11.99
2023-01-15T12:33:24.525Z,12.36
2023-01-15T12:34:24.533Z,12.59
2023-01-15T12:35:24.511Z,12.61
2023-01-15T12:36:24.516Z,12.29
2023-01-15T12:37:24.511Z,11.87
2023-01-15T12:38:24.509Z,11.43
2023-01-15T12:39:24.498Z,11.28
2023-01-15T12:40:24.494Z,11.19
2023-01-15T12:41:24.486Z,11.04
2023-01-15T12:42:24.501Z,10.90
2023-01-15T12:43:24.479Z,10.65
2023-01-15T12:44:24.474Z,10.57
2023-01-15T12:45:24.464Z,10.85
2023-01-15T12:46:24.482Z,10.91
2023-01-15T12:47:24.462Z,10.79
2023-01-15T12:48:24.452Z,10.67
2023-01-15T12:49:24.446Z,10.60
2023-01-15T12:50:24.443Z,10.68
2023-01-15T12:51:24.576Z,10.87
2023-01-15T12:52:24.442Z,10.87
2023-01-15T12:53:24.435Z,10.79
2023-01-15T12:54:24.417Z,10.79
2023-01-15T12:55:24.411Z,10.87
2023-01-15T12:56:24.399Z,10.91
2023-01-15T12:57:24.396Z,10.80
2023-01-15T12:58:24.391Z,10.75
2023-01-15T12:59:24.389Z,10.61
2023-01-15T13:00:24.399Z,10.72
2023-01-15T13:01:24.466Z,10.62
2023-01-15T13:02:24.402Z,10.38
2023-01-15T13:03:24.375Z,10.34
2023-01-15T13:04:24.359Z,10.23
2023-01-15T13:05:24.352Z,10.23
2023-01-15T13:06:24.365Z,10.21
2023-01-15T13:07:24.345Z,10.31
2023-01-15T13:08:24.327Z,10.34
2023-01-15T13:09:25.725Z,10.42
2023-01-15T13:10:24.336Z,10.39
2023-01-15T13:11:24.311Z,10.30
2023-01-15T13:12:24.308Z,10.41
2023-01-15T13:13:24.303Z,10.31
2023-01-15T13:14:24.308Z,10.28